createdAt,value
2019-02-04T00:01:01.085Z,39.80
2019-02-04T00:02:35.437Z,35.57
2019-02-04T00:04:10.269Z,32.40
2019-02-04T00:05:44.625Z,32.10
2019-02-04T00:07:19.005Z,31.63
2019-02-04T00:08:53.361Z,31.87
2019-02-04T00:10:27.732Z,31.97
2019-02-04T00:12:02.070Z,34.57
2019-02-04T00:13:36.457Z,41.17
2019-02-04T00:15:10.805Z,39.73
2019-02-04T00:16:45.365Z,40.47
2019-02-04T00:18:19.733Z,44.37
2019-02-04T00:19:54.120Z,44.67
2019-02-04T00:21:28.466Z,41.87
2019-02-04T00:23:02.820Z,36.97
2019-02-04T00:24:37.254Z,38.73
2019-02-04T00:26:11.645Z,31.97
2019-02-04T00:27:46.063Z,31.23
2019-02-04T00:29:20.724Z,30.37
2019-02-04T00:30:55.142Z,29.40
2019-02-04T00:32:29.554Z,29.77
2019-02-04T00:34:03.907Z,29.60
2019-02-04T00:35:38.296Z,28.83
2019-02-04T00:37:12.578Z,28.67
2019-02-04T00:38:46.860Z,28.97
2019-02-04T00:40:26.069Z,29.23
2019-02-04T00:42:00.483Z,27.50
2019-02-04T00:43:34.833Z,28.23
2019-02-04T00:45:09.262Z,28.67
2019-02-04T00:46:52.085Z,28.13
2019-02-04T00:48:19.602Z,26.43
2019-02-04T00:49:54.252Z,26.30
2019-02-04T00:51:28.632Z,27.57
2019-02-04T00:53:02.994Z,26.57
2019-02-04T00:54:37.349Z,25.83
2019-02-04T00:56:11.705Z,25.43
2019-02-04T00:57:46.068Z,25.73
2019-02-04T00:59:21.859Z,26.00
2019-02-04T01:00:56.218Z,25.03
2019-02-04T01:02:31.001Z,24.33
2019-02-04T01:04:05.424Z,23.40
2019-02-04T01:05:39.809Z,21.87
2019-02-04T01:07:14.153Z,22.83
2019-02-04T01:08:49.024Z,22.27
2019-02-04T01:10:28.831Z,20.80
2019-02-04T01:12:03.197Z,23.37
2019-02-04T01:13:37.540Z,24.23
2019-02-04T01:15:11.941Z,23.00
2019-02-04T01:16:46.381Z,25.83
2019-02-04T01:18:22.451Z,22.43
2019-02-04T01:19:56.793Z,18.80
2019-02-04T01:21:31.252Z,20.77
2019-02-04T01:23:06.009Z,19.93
2019-02-04T01:24:40.496Z,17.63
2019-02-04T01:26:14.937Z,21.07
2019-02-04T01:27:49.304Z,20.17
2019-02-04T01:29:25.166Z,17.53
2019-02-04T01:30:59.529Z,17.00
2019-02-04T01:32:33.808Z,18.97
2019-02-04T01:34:08.170Z,18.97
2019-02-04T01:35:42.760Z,17.33
2019-02-04T01:37:17.116Z,18.73
2019-02-04T01:38:51.468Z,17.00
2019-02-04T01:40:26.736Z,16.63
2019-02-04T01:42:01.096Z,17.40
2019-02-04T01:43:35.450Z,18.63
2019-02-04T01:45:10.171Z,17.63
2019-02-04T01:46:44.629Z,19.33
2019-02-04T01:48:19.202Z,17.03
2019-02-04T01:49:55.068Z,17.63
2019-02-04T01:51:29.421Z,16.27
2019-02-04T01:53:03.797Z,17.47
2019-02-04T01:54:38.201Z,17.60
2019-02-04T01:56:12.628Z,18.50
2019-02-04T01:57:52.913Z,16.70
2019-02-04T01:59:28.826Z,18.33
2019-02-04T02:01:03.188Z,18.47
2019-02-04T02:02:37.545Z,17.17
2019-02-04T02:04:12.021Z,16.40
2019-02-04T02:05:46.384Z,15.90
2019-02-04T02:07:20.758Z,15.97
2019-02-04T02:08:55.477Z,15.90
2019-02-04T02:10:29.829Z,16.53
2019-02-04T02:12:04.193Z,16.27
2019-02-04T02:13:38.550Z,17.43
2019-02-04T02:15:12.914Z,15.73
2019-02-04T02:16:47.269Z,14.80
2019-02-04T02:18:21.613Z,15.93
2019-02-04T02:19:55.977Z,15.37
2019-02-04T02:21:30.701Z,15.33
2019-02-04T02:23:05.067Z,16.40
2019-02-04T02:24:39.424Z,17.60
2019-02-04T02:26:13.862Z,17.27
2019-02-04T02:27:48.216Z,17.80
2019-02-04T02:29:24.085Z,16.73
2019-02-04T02:30:58.420Z,17.40
2019-02-04T02:32:32.785Z,17.63
2019-02-04T02:34:07.413Z,16.10
2019-02-04T02:35:41.772Z,15.83
2019-02-04T02:37:16.138Z,17.60
2019-02-04T02:38:50.497Z,17.97
2019-02-04T02:40:32.380Z,18.27
2019-02-04T02:42:07.137Z,16.50
2019-02-04T02:43:41.493Z,16.93
2019-02-04T02:45:15.850Z,14.40
2019-02-04T02:46:50.213Z,14.93
2019-02-04T02:48:26.086Z,16.50
2019-02-04T02:50:00.444Z,15.87
2019-02-04T02:51:34.807Z,15.13
2019-02-04T02:53:09.154Z,16.13
2019-02-04T02:54:43.934Z,17.87
2019-02-04T02:56:18.286Z,17.03
2019-02-04T02:57:52.689Z,14.23
2019-02-04T02:59:27.041Z,13.83
2019-02-04T03:01:01.437Z,14.83
2019-02-04T03:02:35.788Z,12.33
2019-02-04T03:04:10.182Z,12.93
2019-02-04T03:05:44.514Z,13.47
2019-02-04T03:07:19.196Z,12.93
2019-02-04T03:08:53.556Z,13.33
2019-02-04T03:10:30.152Z,13.47
2019-02-04T03:12:04.509Z,12.30
2019-02-04T03:13:38.877Z,11.43
2019-02-04T03:15:13.237Z,10.70
2019-02-04T03:16:47.594Z,10.13
2019-02-04T03:18:21.944Z,11.00
2019-02-04T03:19:56.733Z,10.87
2019-02-04T03:21:31.099Z,12.00
2019-02-04T03:23:05.464Z,12.23
2019-02-04T03:24:39.814Z,12.17
2019-02-04T03:26:14.169Z,11.57
2019-02-04T03:27:48.524Z,10.17
2019-02-04T03:29:22.884Z,9.97
2019-02-04T03:30:57.223Z,9.93
2019-02-04T03:32:31.879Z,8.73
2019-02-04T03:34:06.286Z,8.10
2019-02-04T03:35:40.717Z,9.57
2019-02-04T03:37:15.073Z,9.63
2019-02-04T03:38:49.552Z,9.53
2019-02-04T03:40:31.396Z,9.10
2019-02-04T03:42:05.794Z,7.53
2019-02-04T03:43:40.137Z,7.70
2019-02-04T03:45:14.550Z,6.00
2019-02-04T03:46:48.901Z,6.97
2019-02-04T03:48:23.256Z,7.47
2019-02-04T03:49:57.601Z,7.90
2019-02-04T03:51:31.952Z,7.03
2019-02-04T03:53:06.607Z,6.40
2019-02-04T03:54:42.472Z,6.53
2019-02-04T03:56:16.852Z,7.00
2019-02-04T03:57:52.665Z,6.27
2019-02-04T03:59:27.014Z,6.13
2019-02-04T04:01:01.389Z,7.20
2019-02-04T04:02:35.738Z,6.23
2019-02-04T04:04:10.120Z,6.97
2019-02-04T04:05:44.393Z,6.43
2019-02-04T04:07:18.763Z,6.30
2019-02-04T04:08:53.113Z,7.23
2019-02-04T04:10:27.469Z,5.70
2019-02-04T04:12:01.823Z,5.33
2019-02-04T04:13:36.199Z,5.60
2019-02-04T04:15:12.588Z,6.47
2019-02-04T04:16:47.053Z,6.40
2019-02-04T04:18:21.557Z,5.97
2019-02-04T04:19:56.078Z,5.10
2019-02-04T04:21:30.417Z,6.23
2019-02-04T04:23:04.792Z,5.93
2019-02-04T04:24:39.153Z,6.03
2019-02-04T04:26:13.496Z,4.80
2019-02-04T04:27:48.054Z,5.40
2019-02-04T04:29:22.481Z,5.07
2019-02-04T04:30:58.265Z,5.13
2019-02-04T04:32:32.612Z,4.17
2019-02-04T04:34:08.482Z,5.07
2019-02-04T04:35:42.825Z,5.80
2019-02-04T04:37:17.168Z,4.43
2019-02-04T04:38:51.947Z,4.70
2019-02-04T04:40:27.832Z,4.57
2019-02-04T04:42:02.187Z,4.50
2019-02-04T04:43:36.532Z,5.13
2019-02-04T04:45:17.024Z,4.47
2019-02-04T04:46:51.381Z,4.20
2019-02-04T04:48:26.859Z,4.50
2019-02-04T04:50:01.360Z,4.80
2019-02-04T04:51:35.714Z,5.27
2019-02-04T04:53:10.310Z,4.70
2019-02-04T04:54:44.656Z,4.20
2019-02-04T04:56:19.089Z,4.60
2019-02-04T04:57:53.509Z,4.87
2019-02-04T04:59:27.926Z,5.20
2019-02-04T05:01:02.268Z,4.90
2019-02-04T05:02:38.281Z,5.28
2019-02-04T05:04:12.671Z,4.97
2019-02-04T05:05:47.026Z,5.47
2019-02-04T05:07:22.891Z,4.17
2019-02-04T05:08:57.268Z,7.00
2019-02-04T05:10:33.089Z,6.10
2019-02-04T05:12:07.837Z,5.72
2019-02-04T05:13:42.229Z,6.45
2019-02-04T05:15:21.593Z,6.57
2019-02-04T05:16:55.965Z,4.83
2019-02-04T05:18:37.739Z,6.30
2019-02-04T05:20:09.549Z,4.60
2019-02-04T05:21:43.901Z,5.87
2019-02-04T05:23:18.303Z,4.07
2019-02-04T05:24:52.641Z,4.17
2019-02-04T05:26:26.986Z,6.10
2019-02-04T05:28:01.346Z,3.43
2019-02-04T05:29:37.217Z,5.13
2019-02-04T05:31:11.565Z,4.70
2019-02-04T05:32:46.909Z,5.07
2019-02-04T05:34:21.288Z,4.97
2019-02-04T05:35:55.562Z,5.83
2019-02-04T05:37:30.211Z,6.80
2019-02-04T05:39:07.097Z,4.80
2019-02-04T05:40:41.765Z,6.12
2019-02-04T05:42:16.113Z,6.90
2019-02-04T05:43:50.476Z,8.07
2019-02-04T05:45:24.849Z,7.07
2019-02-04T05:46:59.195Z,7.13
2019-02-04T05:48:33.573Z,6.13
2019-02-04T05:50:13.368Z,7.27
2019-02-04T05:51:47.748Z,6.27
2019-02-04T05:53:22.396Z,5.80
2019-02-04T05:54:57.796Z,6.10
2019-02-04T05:56:32.080Z,5.53
2019-02-04T05:58:06.469Z,8.95
2019-02-04T05:59:40.894Z,7.27
2019-02-04T06:01:15.233Z,7.33
2019-02-04T06:02:49.588Z,6.85
2019-02-04T06:04:25.467Z,7.23
2019-02-04T06:06:00.041Z,6.50
2019-02-04T06:07:34.429Z,7.00
2019-02-04T06:09:08.785Z,6.90
2019-02-04T06:10:44.649Z,6.20
2019-02-04T06:12:19.003Z,6.40
2019-02-04T06:13:53.412Z,7.00
2019-02-04T06:15:27.780Z,8.43
2019-02-04T06:17:02.129Z,7.30
2019-02-04T06:18:36.734Z,6.87
2019-02-04T06:20:24.477Z,6.93
2019-02-04T06:21:59.066Z,7.10
2019-02-04T06:23:33.420Z,6.73
2019-02-04T06:25:07.770Z,6.50
2019-02-04T06:26:42.123Z,6.80
2019-02-04T06:28:16.471Z,7.60
2019-02-04T06:29:50.849Z,7.37
2019-02-04T06:31:25.199Z,8.40
2019-02-04T06:32:59.553Z,7.67
2019-02-04T06:34:34.212Z,7.90
2019-02-04T06:36:08.561Z,8.87
2019-02-04T06:37:42.993Z,8.70
2019-02-04T06:39:17.373Z,8.67
2019-02-04T06:40:51.722Z,8.87
2019-02-04T06:42:26.077Z,9.20
2019-02-04T06:44:00.426Z,9.73
2019-02-04T06:45:34.773Z,8.73
2019-02-04T06:47:09.441Z,9.07
2019-02-04T06:48:43.842Z,8.63
2019-02-04T06:50:20.296Z,9.70
2019-02-04T06:51:54.729Z,9.70
2019-02-04T06:53:29.092Z,12.63
2019-02-04T06:55:05.548Z,12.63
2019-02-04T06:56:39.915Z,14.43
2019-02-04T06:58:14.260Z,11.47
2019-02-04T06:59:48.923Z,12.43
2019-02-04T07:01:23.315Z,10.43
2019-02-04T07:02:59.498Z,9.60
2019-02-04T07:04:33.893Z,10.33
2019-02-04T07:06:08.241Z,9.77
2019-02-04T07:07:42.612Z,10.77
2019-02-04T07:09:16.965Z,13.00
2019-02-04T07:10:51.327Z,12.90
2019-02-04T07:12:26.089Z,10.27
2019-02-04T07:14:00.533Z,12.60
2019-02-04T07:15:34.990Z,12.60
2019-02-04T07:17:09.334Z,8.47
2019-02-04T07:18:43.706Z,7.53
2019-02-04T07:20:20.753Z,8.43
2019-02-04T07:21:55.139Z,6.67
2019-02-04T07:23:30.993Z,7.83
2019-02-04T07:25:08.801Z,7.47
2019-02-04T07:26:43.218Z,7.27
2019-02-04T07:28:17.596Z,9.57
2019-02-04T07:29:52.044Z,7.67
2019-02-04T07:31:26.485Z,7.03
2019-02-04T07:33:00.831Z,6.27
2019-02-04T07:34:35.236Z,7.53
2019-02-04T07:36:09.575Z,9.03
2019-02-04T07:37:44.248Z,9.17
2019-02-04T07:39:18.665Z,9.77
2019-02-04T07:40:54.533Z,12.27
2019-02-04T07:42:28.976Z,17.00
2019-02-04T07:44:03.503Z,15.93
2019-02-04T07:45:37.947Z,19.83
2019-02-04T07:47:12.293Z,15.27
2019-02-04T07:48:46.660Z,11.50
2019-02-04T07:50:21.326Z,12.60
2019-02-04T07:51:55.737Z,10.70
2019-02-04T07:53:30.206Z,11.80
2019-02-04T07:55:07.136Z,13.67
2019-02-04T07:56:41.501Z,11.40
2019-02-04T07:58:15.849Z,11.40
2019-02-04T07:59:50.206Z,11.53
2019-02-04T08:01:26.049Z,10.60
2019-02-04T08:03:00.585Z,9.60
2019-02-04T08:04:34.960Z,10.80
2019-02-04T08:06:09.311Z,11.63
2019-02-04T08:07:43.673Z,10.93
2019-02-04T08:09:18.020Z,12.03
2019-02-04T08:10:52.376Z,10.47
2019-02-04T08:12:26.720Z,10.87
2019-02-04T08:14:02.732Z,10.87
2019-02-04T08:15:38.040Z,10.70
2019-02-04T08:17:12.382Z,9.97
2019-02-04T08:18:46.809Z,11.43
2019-02-04T08:20:22.785Z,10.33
2019-02-04T08:21:57.292Z,11.67
2019-02-04T08:23:31.850Z,9.57
2019-02-04T08:25:09.612Z,10.10
2019-02-04T08:26:44.001Z,9.77
2019-02-04T08:28:18.357Z,11.90
2019-02-04T08:29:52.761Z,13.23
2019-02-04T08:31:27.214Z,12.87
2019-02-04T08:33:03.200Z,15.15
2019-02-04T08:34:37.558Z,14.47
2019-02-04T08:36:13.850Z,13.10
2019-02-04T08:37:48.203Z,11.93
2019-02-04T08:39:22.635Z,14.37
2019-02-04T08:40:57.041Z,16.13
2019-02-04T08:42:31.409Z,11.10
2019-02-04T08:44:06.145Z,10.03
2019-02-04T08:45:40.509Z,10.63
2019-02-04T08:47:22.816Z,13.90
2019-02-04T08:48:50.934Z,10.10
2019-02-04T08:50:26.725Z,10.77
2019-02-04T08:52:01.177Z,13.00
2019-02-04T08:53:37.045Z,13.13
2019-02-04T08:55:11.402Z,13.03
2019-02-04T08:56:45.749Z,10.93
2019-02-04T08:58:20.137Z,10.90
2019-02-04T08:59:54.933Z,12.13
2019-02-04T09:01:29.377Z,11.73
2019-02-04T09:03:03.733Z,11.00
2019-02-04T09:04:38.129Z,10.40
2019-02-04T09:06:12.789Z,10.77
2019-02-04T09:07:47.309Z,11.57
2019-02-04T09:09:21.761Z,12.67
2019-02-04T09:10:59.204Z,10.47
2019-02-04T09:12:33.233Z,10.23
2019-02-04T09:14:07.617Z,11.33
2019-02-04T09:15:42.008Z,9.93
2019-02-04T09:17:16.361Z,11.83
2019-02-04T09:18:51.429Z,12.23
2019-02-04T09:20:25.849Z,13.40
2019-02-04T09:22:00.209Z,12.83
2019-02-04T09:23:34.565Z,12.83
2019-02-04T09:25:11.770Z,13.00
2019-02-04T09:26:47.656Z,11.47
2019-02-04T09:28:22.005Z,11.27
2019-02-04T09:29:56.372Z,12.77
2019-02-04T09:31:31.043Z,11.90
2019-02-04T09:33:05.394Z,13.50
2019-02-04T09:34:39.755Z,14.60
2019-02-04T09:36:14.131Z,13.73
2019-02-04T09:37:48.628Z,14.60
2019-02-04T09:39:23.049Z,17.67
2019-02-04T09:40:57.401Z,15.90
2019-02-04T09:42:31.781Z,14.87
2019-02-04T09:44:07.164Z,18.30
2019-02-04T09:45:41.677Z,19.33
2019-02-04T09:47:16.038Z,12.87
2019-02-04T09:48:50.602Z,63.70
2019-02-04T09:50:32.534Z,18.60
2019-02-04T09:52:06.799Z,16.80
2019-02-04T09:53:42.693Z,17.70
2019-02-04T09:55:19.680Z,15.10
2019-02-04T09:56:54.341Z,17.83
2019-02-04T09:58:28.699Z,18.17
2019-02-04T10:00:03.571Z,13.37
2019-02-04T10:01:37.924Z,14.60
2019-02-04T10:03:12.316Z,14.50
2019-02-04T10:04:46.670Z,17.23
2019-02-04T10:06:21.038Z,15.37
2019-02-04T10:07:55.461Z,12.80
2019-02-04T10:09:29.953Z,16.40
2019-02-04T10:11:04.314Z,14.27
2019-02-04T10:12:38.709Z,12.80
2019-02-04T10:14:13.077Z,17.07
2019-02-04T10:15:47.458Z,12.83
2019-02-04T10:17:21.816Z,12.33
2019-02-04T10:18:56.186Z,13.33
2019-02-04T10:20:34.239Z,15.53
2019-02-04T10:22:06.615Z,12.47
2019-02-04T10:23:41.537Z,11.80
2019-02-04T10:25:21.802Z,12.17
2019-02-04T10:26:56.169Z,12.87
2019-02-04T10:28:30.550Z,13.47
2019-02-04T10:30:08.506Z,14.93
2019-02-04T10:31:42.897Z,15.53
2019-02-04T10:33:17.303Z,13.70
2019-02-04T10:34:51.709Z,13.70
2019-02-04T10:36:26.128Z,14.37
2019-02-04T10:38:00.524Z,14.77
2019-02-04T10:39:34.874Z,12.50
2019-02-04T10:41:09.241Z,14.30
2019-02-04T10:42:43.662Z,12.97
2019-02-04T10:44:18.012Z,12.17
2019-02-04T10:45:52.455Z,12.03
2019-02-04T10:47:27.445Z,12.00
2019-02-04T10:49:01.859Z,12.70
2019-02-04T10:50:46.246Z,10.53
2019-02-04T10:52:16.878Z,11.53
2019-02-04T10:53:51.206Z,11.57
2019-02-04T10:55:25.732Z,11.57
2019-02-04T10:57:00.092Z,12.50
2019-02-04T10:58:34.439Z,13.57
2019-02-04T11:00:12.135Z,14.13
2019-02-04T11:01:46.473Z,13.40
2019-02-04T11:03:21.177Z,13.13
2019-02-04T11:04:55.493Z,13.70
2019-02-04T11:06:29.885Z,12.23
2019-02-04T11:08:06.876Z,13.30
2019-02-04T11:09:41.316Z,14.60
2019-02-04T11:11:15.712Z,15.00
2019-02-04T11:12:50.398Z,12.50
2019-02-04T11:14:24.764Z,18.03
2019-02-04T11:16:00.665Z,13.10
2019-02-04T11:17:35.052Z,14.73
2019-02-04T11:19:09.430Z,13.63
2019-02-04T11:20:43.821Z,13.23
2019-02-04T11:22:18.252Z,14.07
2019-02-04T11:23:52.651Z,12.90
2019-02-04T11:25:27.036Z,16.03
2019-02-04T11:27:01.433Z,23.10
2019-02-04T11:28:35.822Z,22.27
2019-02-04T11:30:16.218Z,21.63
2019-02-04T11:31:50.585Z,18.57
2019-02-04T11:33:24.932Z,16.40
2019-02-04T11:34:59.455Z,15.80
2019-02-04T11:36:34.158Z,16.33
2019-02-04T11:38:08.641Z,16.07
2019-02-04T11:39:43.061Z,15.50
2019-02-04T11:41:17.438Z,15.93
2019-02-04T11:42:51.796Z,21.53
2019-02-04T11:44:26.182Z,15.00
2019-02-04T11:46:00.552Z,14.97
2019-02-04T11:47:34.910Z,15.27
2019-02-04T11:49:09.569Z,17.03
2019-02-04T11:50:43.977Z,16.67
2019-02-04T11:52:18.341Z,17.80
2019-02-04T11:53:52.705Z,17.20
2019-02-04T11:55:27.057Z,18.02
2019-02-04T11:57:01.499Z,17.80
2019-02-04T11:58:35.892Z,21.33
2019-02-04T12:00:13.669Z,18.23
2019-02-04T12:01:48.331Z,16.90
2019-02-04T12:03:22.688Z,18.33
2019-02-04T12:04:57.056Z,18.73
2019-02-04T12:06:33.036Z,18.27
2019-02-04T12:08:07.943Z,19.73
2019-02-04T12:09:42.332Z,18.47
2019-02-04T12:11:16.697Z,17.20
2019-02-04T12:12:51.049Z,17.77
2019-02-04T12:14:25.710Z,26.53
2019-02-04T12:16:01.578Z,20.77
2019-02-04T12:17:35.946Z,21.43
2019-02-04T12:19:11.789Z,20.10
2019-02-04T12:20:46.177Z,19.97
2019-02-04T12:22:20.465Z,19.50
2019-02-04T12:23:56.408Z,21.53
2019-02-04T12:25:30.766Z,23.30
2019-02-04T12:27:06.725Z,21.07
2019-02-04T12:28:43.270Z,23.77
2019-02-04T12:30:23.208Z,21.67
2019-02-04T12:31:57.797Z,24.87
2019-02-04T12:33:32.252Z,26.07
2019-02-04T12:35:09.844Z,25.00
2019-02-04T12:36:44.218Z,27.57
2019-02-04T12:38:18.569Z,27.33
2019-02-04T12:39:52.932Z,26.33
2019-02-04T12:41:28.925Z,25.47
2019-02-04T12:43:03.681Z,32.60
2019-02-04T12:44:38.033Z,32.47
2019-02-04T12:46:12.396Z,32.63
2019-02-04T12:47:46.832Z,31.17
2019-02-04T12:49:21.291Z,30.67
2019-02-04T12:50:55.645Z,31.93
2019-02-04T12:52:30.006Z,29.10
2019-02-04T12:54:04.728Z,28.93
2019-02-04T12:55:51.834Z,24.97
2019-02-04T12:57:26.189Z,27.20
2019-02-04T12:59:02.061Z,31.30
2019-02-04T13:00:36.499Z,28.03
2019-02-04T13:02:10.889Z,24.53
2019-02-04T13:03:46.954Z,27.70
2019-02-04T13:05:24.306Z,26.50
2019-02-04T13:06:58.662Z,23.80
2019-02-04T13:08:33.021Z,24.47
2019-02-04T13:10:10.325Z,19.70
2019-02-04T13:11:44.886Z,17.63
2019-02-04T13:13:19.420Z,18.53
2019-02-04T13:14:53.776Z,18.97
2019-02-04T13:16:28.125Z,21.33
2019-02-04T13:18:02.483Z,24.30
2019-02-04T13:19:36.840Z,29.40
2019-02-04T13:21:11.197Z,38.13
2019-02-04T13:22:45.549Z,35.00
2019-02-04T13:24:21.329Z,19.40
2019-02-04T13:25:55.688Z,18.90
2019-02-04T13:27:30.044Z,22.70
2019-02-04T13:29:04.405Z,23.43
2019-02-04T13:30:38.776Z,23.20
2019-02-04T13:32:13.139Z,23.27
2019-02-04T13:33:47.496Z,21.70
2019-02-04T13:35:21.853Z,22.47
2019-02-04T13:36:56.637Z,22.80
2019-02-04T13:38:31.005Z,22.47
2019-02-04T13:40:11.329Z,23.17
2019-02-04T13:41:45.693Z,23.10
2019-02-04T13:43:20.055Z,21.17
2019-02-04T13:44:54.410Z,20.17
2019-02-04T13:46:28.765Z,20.30
2019-02-04T13:48:03.200Z,21.20
2019-02-04T13:49:40.805Z,25.43
2019-02-04T13:51:16.665Z,24.90
2019-02-04T13:52:51.701Z,23.70
2019-02-04T13:54:26.299Z,22.40
2019-02-04T13:56:00.690Z,19.43
2019-02-04T13:57:35.479Z,17.53
2019-02-04T13:59:09.862Z,17.13
2019-02-04T14:00:44.256Z,17.90
2019-02-04T14:02:18.639Z,18.27
2019-02-04T14:03:53.184Z,18.60
2019-02-04T14:05:31.110Z,19.23
2019-02-04T14:07:04.809Z,17.63
2019-02-04T14:08:39.246Z,17.87
2019-02-04T14:10:16.771Z,15.87
2019-02-04T14:11:51.145Z,19.80
2019-02-04T14:13:27.049Z,17.93
2019-02-04T14:15:01.435Z,15.23
2019-02-04T14:16:35.842Z,17.40
2019-02-04T14:18:10.537Z,16.97
2019-02-04T14:19:46.476Z,15.40
2019-02-04T14:21:20.860Z,19.03
2019-02-04T14:22:55.238Z,31.27
2019-02-04T14:24:29.629Z,74.83
2019-02-04T14:26:04.014Z,27.90
2019-02-04T14:27:38.474Z,18.10
2019-02-04T14:29:12.866Z,17.73
2019-02-04T14:30:47.542Z,17.17
2019-02-04T14:32:21.982Z,19.43
2019-02-04T14:33:58.144Z,20.13
2019-02-04T14:35:32.359Z,20.77
2019-02-04T14:37:06.747Z,19.53
2019-02-04T14:38:42.658Z,19.83
2019-02-04T14:40:18.836Z,17.40
2019-02-04T14:41:53.052Z,17.07
2019-02-04T14:43:30.164Z,16.60
2019-02-04T14:45:19.994Z,12.83
2019-02-04T14:47:03.258Z,10.63
2019-02-04T14:49:01.630Z,12.03
2019-02-04T14:50:46.382Z,14.73
2019-02-04T14:52:24.089Z,18.00
2019-02-04T14:54:16.786Z,21.50
2019-02-04T14:56:20.246Z,22.43
2019-02-04T14:58:28.352Z,26.77
2019-02-04T15:00:25.858Z,26.80
2019-02-04T15:02:21.702Z,29.27
2019-02-04T15:03:59.346Z,28.50
2019-02-04T15:05:39.936Z,22.17
2019-02-04T15:07:42.726Z,22.07
2019-02-04T15:09:42.650Z,29.33
2019-02-04T15:11:23.609Z,30.53
2019-02-04T15:13:15.867Z,27.27
2019-02-04T15:14:56.274Z,21.37
2019-02-04T15:16:36.884Z,21.47
2019-02-04T15:18:23.302Z,24.57
2019-02-04T15:20:30.806Z,28.03
2019-02-04T15:22:20.298Z,30.83
2019-02-04T15:24:08.359Z,30.60
2019-02-04T15:25:45.360Z,26.30
2019-02-04T15:27:34.783Z,29.87
2019-02-04T15:29:18.446Z,52.60
2019-02-04T15:31:01.846Z,31.83
2019-02-04T15:32:51.238Z,29.00
2019-02-04T15:34:31.723Z,40.73
2019-02-04T15:36:12.370Z,55.27
2019-02-04T15:38:06.554Z,46.30
2019-02-04T15:39:50.066Z,30.77
2019-02-04T15:41:33.399Z,26.10
2019-02-04T15:43:27.367Z,23.97
2019-02-04T15:45:14.310Z,27.73
2019-02-04T15:46:57.559Z,26.50
2019-02-04T15:48:35.210Z,26.37
2019-02-04T15:50:30.695Z,28.07
2019-02-04T15:52:05.078Z,27.47
2019-02-04T15:53:39.464Z,25.37
2019-02-04T15:55:15.878Z,24.20
2019-02-04T15:56:51.777Z,25.43
2019-02-04T15:58:26.263Z,24.47
2019-02-04T16:00:02.161Z,26.30
2019-02-04T16:01:36.543Z,27.47
2019-02-04T16:03:10.929Z,26.43
2019-02-04T16:04:45.354Z,26.00
2019-02-04T16:06:19.730Z,25.43
2019-02-04T16:07:54.621Z,22.10
2019-02-04T16:09:29.939Z,20.27
2019-02-04T16:11:04.358Z,19.53
2019-02-04T16:12:38.742Z,21.33
2019-02-04T16:14:13.122Z,19.70
2019-02-04T16:15:47.538Z,23.07
2019-02-04T16:17:21.914Z,20.97
2019-02-04T16:18:56.293Z,21.30
2019-02-04T16:20:31.675Z,18.23
2019-02-04T16:22:06.060Z,14.93
2019-02-04T16:23:40.523Z,14.83
2019-02-04T16:25:14.982Z,17.10
2019-02-04T16:26:49.369Z,16.97
2019-02-04T16:28:23.726Z,17.03
2019-02-04T16:29:58.941Z,18.40
2019-02-04T16:31:33.317Z,19.43
2019-02-04T16:33:07.872Z,18.77
2019-02-04T16:34:42.230Z,17.27
2019-02-04T16:36:16.585Z,17.17
2019-02-04T16:37:51.017Z,15.80
2019-02-04T16:39:25.369Z,15.77
2019-02-04T16:40:59.733Z,13.23
2019-02-04T16:42:34.088Z,15.97
2019-02-04T16:44:10.105Z,13.50
2019-02-04T16:45:44.573Z,13.87
2019-02-04T16:47:18.942Z,13.50
2019-02-04T16:48:53.298Z,16.90
2019-02-04T16:50:28.629Z,15.27
2019-02-04T16:52:02.989Z,15.87
2019-02-04T16:53:37.369Z,20.53
2019-02-04T16:55:11.725Z,23.87
2019-02-04T16:56:46.132Z,16.20
2019-02-04T16:58:20.598Z,19.03
2019-02-04T16:59:54.985Z,18.70
2019-02-04T17:01:29.997Z,16.37
2019-02-04T17:03:04.566Z,23.57
2019-02-04T17:04:38.935Z,21.30
2019-02-04T17:06:13.300Z,21.40
2019-02-04T17:07:47.661Z,36.23
2019-02-04T17:09:22.550Z,25.73
2019-02-04T17:10:56.969Z,21.30
2019-02-04T17:12:31.344Z,77.53
2019-02-04T17:14:05.850Z,160.17
2019-02-04T17:15:40.532Z,130.80
2019-02-04T17:17:14.905Z,103.13
2019-02-04T17:18:49.362Z,108.40
2019-02-04T17:20:26.573Z,119.83
2019-02-04T17:22:00.958Z,108.57
2019-02-04T17:23:35.995Z,140.67
2019-02-04T17:25:10.373Z,109.00
2019-02-04T17:26:44.853Z,172.90
2019-02-04T17:28:19.421Z,109.73
2019-02-04T17:29:53.793Z,69.93
2019-02-04T17:31:28.164Z,65.43
2019-02-04T17:33:02.525Z,71.53
2019-02-04T17:34:36.894Z,189.30
2019-02-04T17:36:12.814Z,144.17
2019-02-04T17:37:47.185Z,105.00
2019-02-04T17:39:21.549Z,40.63
2019-02-04T17:40:56.220Z,29.97
2019-02-04T17:42:30.600Z,54.17
2019-02-04T17:44:04.970Z,59.87
2019-02-04T17:45:39.427Z,50.17
2019-02-04T17:47:13.880Z,50.97
2019-02-04T17:48:48.272Z,53.47
2019-02-04T17:50:23.006Z,37.40
2019-02-04T17:51:59.412Z,50.37
2019-02-04T17:53:34.544Z,43.63
2019-02-04T17:55:18.241Z,38.93
2019-02-04T17:56:52.613Z,71.97
2019-02-04T17:58:30.076Z,39.40
2019-02-04T18:00:11.897Z,30.67
2019-02-04T18:01:46.338Z,30.37
2019-02-04T18:03:20.739Z,32.67
2019-02-04T18:04:55.062Z,38.20
2019-02-04T18:06:31.600Z,38.80
2019-02-04T18:08:06.681Z,30.93
2019-02-04T18:09:41.041Z,21.13
2019-02-04T18:11:15.405Z,22.93
2019-02-04T18:12:51.282Z,32.97
2019-02-04T18:14:25.788Z,36.13
2019-02-04T18:16:00.145Z,31.27
2019-02-04T18:17:34.556Z,49.27
2019-02-04T18:19:08.917Z,60.13
2019-02-04T18:20:46.229Z,40.67
2019-02-04T18:22:20.589Z,44.03
2019-02-04T18:23:55.049Z,119.83
2019-02-04T18:25:29.420Z,119.87
2019-02-04T18:27:03.796Z,54.63
2019-02-04T18:28:38.257Z,41.73
2019-02-04T18:30:15.984Z,38.63
2019-02-04T18:31:50.361Z,48.13
2019-02-04T18:33:24.766Z,61.70
2019-02-04T18:34:59.162Z,55.27
2019-02-04T18:36:33.834Z,53.07
2019-02-04T18:38:08.402Z,49.80
2019-02-04T18:39:42.761Z,25.53
2019-02-04T18:41:17.172Z,22.27
2019-02-04T18:42:51.521Z,27.33
2019-02-04T18:44:25.889Z,38.80
2019-02-04T18:46:01.805Z,35.67
2019-02-04T18:47:36.573Z,39.23
2019-02-04T18:49:10.938Z,27.70
2019-02-04T18:50:45.369Z,41.87
2019-02-04T18:52:19.810Z,32.90
2019-02-04T18:53:57.789Z,26.17
2019-02-04T18:55:34.065Z,24.43
2019-02-04T18:57:08.430Z,27.13
2019-02-04T18:58:42.993Z,34.23
2019-02-04T19:00:22.686Z,27.17
2019-02-04T19:01:57.048Z,30.93
2019-02-04T19:03:32.405Z,31.20
2019-02-04T19:05:09.162Z,27.20
2019-02-04T19:06:47.720Z,39.70
2019-02-04T19:08:19.816Z,42.90
2019-02-04T19:09:54.178Z,27.87
2019-02-04T19:11:28.566Z,19.70
2019-02-04T19:13:02.924Z,15.93
2019-02-04T19:14:37.287Z,16.87
2019-02-04T19:16:11.786Z,26.53
2019-02-04T19:17:46.654Z,24.57
2019-02-04T19:19:22.928Z,37.20
2019-02-04T19:20:57.295Z,33.73
2019-02-04T19:22:31.689Z,21.57
2019-02-04T19:24:09.613Z,37.10
2019-02-04T19:25:42.297Z,53.43
2019-02-04T19:27:16.654Z,44.60
2019-02-04T19:28:52.566Z,17.53
2019-02-04T19:30:33.037Z,21.73
2019-02-04T19:32:07.409Z,24.43
2019-02-04T19:33:41.973Z,28.53
2019-02-04T19:35:17.842Z,36.87
2019-02-04T19:36:52.549Z,22.37
2019-02-04T19:38:27.100Z,19.07
2019-02-04T19:40:01.903Z,24.50
2019-02-04T19:41:36.257Z,20.37
2019-02-04T19:43:10.632Z,21.97
2019-02-04T19:44:45.190Z,18.83
2019-02-04T19:46:19.577Z,15.30
2019-02-04T19:47:54.013Z,14.40
2019-02-04T19:49:28.377Z,19.20
2019-02-04T19:51:02.810Z,20.93
2019-02-04T19:52:37.175Z,19.70
2019-02-04T19:54:21.264Z,26.20
2019-02-04T19:55:47.520Z,34.17
2019-02-04T19:57:21.892Z,13.27
2019-02-04T19:58:56.258Z,15.83
2019-02-04T20:00:32.253Z,15.33
2019-02-04T20:02:06.621Z,15.47
2019-02-04T20:03:40.981Z,15.70
2019-02-04T20:05:20.966Z,14.47
2019-02-04T20:06:55.328Z,16.47
2019-02-04T20:08:29.689Z,16.53
2019-02-04T20:10:05.633Z,17.53
2019-02-04T20:11:40.045Z,17.37
2019-02-04T20:13:14.423Z,17.85
2019-02-04T20:14:48.852Z,22.83
2019-02-04T20:16:23.225Z,31.80
2019-02-04T20:17:58.012Z,49.27
2019-02-04T20:19:32.452Z,43.33
2019-02-04T20:21:06.824Z,35.03
2019-02-04T20:22:41.266Z,37.07
2019-02-04T20:24:15.664Z,38.00
2019-02-04T20:25:51.377Z,42.57
2019-02-04T20:27:27.215Z,41.80
2019-02-04T20:29:01.706Z,38.47
2019-02-04T20:30:46.398Z,40.13
2019-02-04T20:32:20.957Z,41.30
2019-02-04T20:33:55.325Z,40.67
2019-02-04T20:35:29.685Z,42.33
2019-02-04T20:37:04.058Z,54.57
2019-02-04T20:38:38.723Z,52.93